Date,TemperatureHighF,TemperatureAvgF,TemperatureLowF,DewpointHighF,DewpointAvgF,DewpointLowF,HumidityHigh,HumidityAvg,HumidityLow,PressureMaxIn,PressureMinIn,WindSpeedMaxMPH,WindSpeedAvgMPH,GustSpeedMaxMPH,PrecipitationSumIn
2013-6-17,82,76,66,54,51,46,62,43,30,28.46,28.41,16,2,16,0.00
2013-6-18,83,71,58,59,54,49,85,58,32,28.51,28.41,11,2,11,0.00
2013-6-19,86,75,61,68,58,53,80,59,37,28.46,28.32,20,3,20,0.04
2013-6-20,88,79,68,70,66,62,85,67,51,28.39,28.25,28,6,28,0.00
2013-6-21,88,76,65,72,68,60,94,75,49,28.34,28.23,33,5,33,0.29
2013-6-22,76,69,64,69,65,62,96,89,70,29.85,28.25,27,3,27,2.54
2013-6-23,80,71,63,68,63,60,95,78,54,29.86,29.61,25,3,25,0.40
2013-6-24,80,70,62,70,65,60,96,85,65,29.89,29.71,14,2,14,0.29
2013-6-25,90,82,69,71,68,63,95,65,44,29.72,29.62,18,2,18,0.00
2013-6-26,89,79,70,70,66,57,96,67,36,29.80,29.59,14,1,14,0.00
2013-6-27,87,77,67,67,61,52,90,63,32,29.91,29.79,18,2,18,0.00
2013-6-28,83,74,63,60,56,51,79,55,33,29.91,29.84,23,3,23,0.00
2013-6-29,78,70,62,60,56,51,84,63,41,29.95,29.83,28,5,28,0.00
2013-6-30,78,67,57,55,50,43,85,58,33,30.13,29.95,14,2,14,0.00
2013-7-1,84,72,58,56,52,45,79,53,28,30.18,30.10,13,2,13,0.00
2013-7-2,81,71,64,64,57,53,80,63,39,30.12,30.02,11,1,0,0.08
2013-7-3,86,72,57,62,57,50,95,64,30,30.03,29.88,11,1,0,0.00
2013-7-4,87,74,60,61,58,54,87,60,34,29.89,29.77,23,4,23,0.00
2013-7-5,88,77,68,66,61,56,74,60,42,29.81,29.72,20,4,20,0.00
2013-7-6,83,76,71,70,66,62,75,70,63,29.76,29.71,11,2,0,0.00
2013-7-7,91,79,68,74,68,64,94,72,54,29.88,29.75,11,2,0,0.03
2013-7-8,90,79,67,72,68,62,88,70,46,29.93,29.83,12,2,12,0.00
2013-7-9,85,77,66,73,68,63,94,75,52,29.94,29.77,18,3,18,0.17
2013-7-10,80,70,60,66,57,51,92,66,39,30.07,29.94,12,2,12,0.00
2013-7-11,84,73,61,64,60,56,86,64,46,30.06,29.88,19,4,19,0.00
2013-7-12,90,78,66,72,65,59,79,65,52,29.92,29.77,25,5,25,0.00
2013-7-13,78,76,74,67,66,65,73,70,70,29.86,29.84,12,3,12,0.00
2013-7-20,82,76,68,66,65,64,89,70,58,29.89,29.84,9,1,0,0.06
2013-7-21,86,76,66,69,65,60,93,71,45,29.88,29.71,8,1,0,0.00
2013-7-22,85,75,63,72,66,58,97,75,49,29.86,29.65,19,2,19,0.01
2013-7-23,74,66,58,59,56,52,90,74,49,30.01,29.85,13,2,13,0.00
2013-7-24,61,57,54,56,54,52,93,90,83,30.04,30.00,2,0,0,0.00
2013-7-25,83,78,70,69,66,62,84,68,59,29.94,29.86,10,2,0,0.00
2013-7-26,71,64,55,65,52,46,91,68,45,30.10,29.93,23,4,23,0.00
2013-7-27,69,60,46,50,46,42,91,62,39,30.13,30.01,19,3,19,0.00
2013-7-28,73,61,45,52,46,42,90,61,38,30.06,30.00,16,2,16,0.00
2013-7-29,74,62,48,58,53,45,92,74,51,30.07,30.02,14,2,14,0.00
2013-7-30,76,68,62,64,61,58,96,81,64,30.07,30.02,10,2,0,0.00
2013-7-31,80,68,56,64,59,55,96,75,44,30.12,30.01,10,1,0,0.00
2013-8-1,86,70,55,66,60,53,96,74,42,30.06,29.83,19,2,19,0.00
2013-8-2,71,65,57,62,58,53,91,79,54,30.05,29.85,9,1,0,0.07
2013-8-3,77,65,50,58,52,48,95,68,39,30.20,30.05,14,1,14,0.00
2013-8-4,77,66,53,61,55,48,90,70,47,30.22,29.93,14,2,14,0.00
2013-8-5,71,68,65,67,63,58,96,85,71,29.93,29.81,11,1,0,0.00
2013-8-6,82,66,59,65,60,57,94,83,49,29.83,29.71,14,2,14,0.00
2013-8-7,66,63,62,58,57,56,81,79,76,29.99,29.97,3,0,0,0.00
2013-8-8,76,67,60,68,60,54,93,80,70,30.01,29.92,12,2,12,0.01
2013-8-9,79,68,55,62,56,53,98,70,43,30.12,29.99,9,2,18,0.00
2013-8-10,60,58,55,56,55,52,93,89,86,30.15,30.12,3,0,0,0.00